sensor_id;sensor_type;location;lat;lon;timestamp;pressure;altitude;pressure_sealevel;temperature;humidity
7333;BME280;3707;43.618;25.342;2022-11-20T00:01:06;99476.41;;;12.07;100.00
7333;BME280;3707;43.618;25.342;2022-11-20T00:03:33;99470.34;;;12.14;100.00
7333;BME280;3707;43.618;25.342;2022-11-20T00:06:01;99440.88;;;12.06;100.00
7333;BME280;3707;43.618;25.342;2022-11-20T00:08:28;99461.69;;;12.20;100.00
7333;BME280;3707;43.618;25.342;2022-11-20T00:10:55;99460.81;;;12.19;100.00
7333;BME280;3707;43.618;25.342;2022-11-20T00:13:22;99458.19;;;12.25;100.00
7333;BME280;3707;43.618;25.342;2022-11-20T00:15:50;99451.25;;;12.17;100.00
7333;BME280;3707;43.618;25.342;2022-11-20T00:18:22;99449.53;;;12.14;100.00
7333;BME280;3707;43.618;25.342;2022-11-20T00:20:49;99450.44;;;12.01;100.00
7333;BME280;3707;43.618;25.342;2022-11-20T00:23:17;99449.56;;;12.05;100.00
7333;BME280;3707;43.618;25.342;2022-11-20T00:25:44;99441.75;;;12.02;100.00
7333;BME280;3707;43.618;25.342;2022-11-20T00:28:11;99430.50;;;12.09;100.00
7333;BME280;3707;43.618;25.342;2022-11-20T00:30:38;99432.22;;;12.07;100.00
7333;BME280;3707;43.618;25.342;2022-11-20T00:33:04;99409.72;;;12.05;100.00
7333;BME280;3707;43.618;25.342;2022-11-20T00:35:31;99412.31;;;12.09;100.00
7333;BME280;3707;43.618;25.342;2022-11-20T00:37:58;99413.19;;;12.04;100.00
7333;BME280;3707;43.618;25.342;2022-11-20T00:40:26;99408.84;;;12.07;100.00
7333;BME280;3707;43.618;25.342;2022-11-20T00:42:53;99377.72;;;11.86;100.00
7333;BME280;3707;43.618;25.342;2022-11-20T00:45:20;99391.56;;;12.02;100.00
7333;BME280;3707;43.618;25.342;2022-11-20T00:47:46;99389.81;;;12.05;100.00
7333;BME280;3707;43.618;25.342;2022-11-20T00:50:13;99400.19;;;12.07;100.00
7333;BME280;3707;43.618;25.342;2022-11-20T00:52:40;99401.94;;;12.09;100.00
7333;BME280;3707;43.618;25.342;2022-11-20T00:55:07;99399.34;;;12.09;100.00
7333;BME280;3707;43.618;25.342;2022-11-20T00:57:35;99400.19;;;12.13;100.00
7333;BME280;3707;43.618;25.342;2022-11-20T01:00:03;99392.38;;;12.19;100.00
7333;BME280;3707;43.618;25.342;2022-11-20T01:02:30;99377.66;;;12.07;100.00
7333;BME280;3707;43.618;25.342;2022-11-20T01:04:56;99369.84;;;12.10;100.00
7333;BME280;3707;43.618;25.342;2022-11-20T01:07:23;99378.50;;;12.14;100.00
7333;BME280;3707;43.618;25.342;2022-11-20T01:09:50;99359.47;;;12.15;100.00
7333;BME280;3707;43.618;25.342;2022-11-20T01:12:17;99377.66;;;12.16;100.00
7333;BME280;3707;43.618;25.342;2022-11-20T01:14:46;99358.63;;;12.08;100.00
7333;BME280;3707;43.618;25.342;2022-11-20T01:17:13;99362.94;;;12.08;100.00
7333;BME280;3707;43.618;25.342;2022-11-20T01:19:40;99343.03;;;12.05;100.00
7333;BME280;3707;43.618;25.342;2022-11-20T01:22:07;99358.59;;;12.14;100.00
7333;BME280;3707;43.618;25.342;2022-11-20T01:24:33;99356.84;;;12.27;100.00
7333;BME280;3707;43.618;25.342;2022-11-20T01:27:00;99348.13;;;12.32;100.00
7333;BME280;3707;43.618;25.342;2022-11-20T01:29:27;99321.31;;;12.23;100.00
7333;BME280;3707;43.618;25.342;2022-11-20T01:31:55;99360.16;;;12.56;100.00
7333;BME280;3707;43.618;25.342;2022-11-20T01:34:22;99368.78;;;12.63;100.00
7333;BME280;3707;43.618;25.342;2022-11-20T01:36:50;99373.16;;;12.62;100.00
7333;BME280;3707;43.618;25.342;2022-11-20T01:39:19;99375.69;;;12.76;100.00
7333;BME280;3707;43.618;25.342;2022-11-20T01:41:47;99372.22;;;12.75;100.00
7333;BME280;3707;43.618;25.342;2022-11-20T01:44:56;99361.78;;;12.83;100.00
7333;BME280;3707;43.618;25.342;2022-11-20T01:47:28;99331.50;;;12.68;100.00
7333;BME280;3707;43.618;25.342;2022-11-20T01:49:59;99353.06;;;12.87;100.00
7333;BME280;3707;43.618;25.342;2022-11-20T01:52:30;99364.34;;;12.86;100.00
7333;BME280;3707;43.618;25.342;2022-11-20T01:55:02;99361.75;;;12.84;100.00
7333;BME280;3707;43.618;25.342;2022-11-20T01:57:31;99340.94;;;12.83;100.00
7333;BME280;3707;43.618;25.342;2022-11-20T02:00:03;99349.59;;;12.86;100.00
7333;BME280;3707;43.618;25.342;2022-11-20T02:02:31;99364.31;;;12.93;100.00
7333;BME280;3707;43.618;25.342;2022-11-20T02:05:04;99341.78;;;12.89;100.00
7333;BME280;3707;43.618;25.342;2022-11-20T02:07:36;99355.63;;;12.91;100.00
7333;BME280;3707;43.618;25.342;2022-11-20T02:10:04;99323.59;;;12.82;100.00
7333;BME280;3707;43.618;25.342;2022-11-20T02:12:30;99341.75;;;12.92;100.00
7333;BME280;3707;43.618;25.342;2022-11-20T02:15:15;99334.00;;;12.85;100.00
7333;BME280;3707;43.618;25.342;2022-11-20T02:17:43;99316.63;;;12.90;100.00
7333;BME280;3707;43.618;25.342;2022-11-20T02:20:11;99267.41;;;12.58;100.00
7333;BME280;3707;43.618;25.342;2022-11-20T02:22:43;99309.78;;;12.74;100.00
7333;BME280;3707;43.618;25.342;2022-11-20T02:25:14;99278.69;;;12.53;100.00
7333;BME280;3707;43.618;25.342;2022-11-20T02:27:41;99261.44;;;12.39;100.00
7333;BME280;3707;43.618;25.342;2022-11-20T02:30:09;99275.19;;;12.60;100.00
7333;BME280;3707;43.618;25.342;2022-11-20T02:32:38;99260.47;;;12.57;100.00
7333;BME280;3707;43.618;25.342;2022-11-20T02:35:07;99245.78;;;12.52;100.00
7333;BME280;3707;43.618;25.342;2022-11-20T02:37:36;99234.47;;;12.56;100.00
7333;BME280;3707;43.618;25.342;2022-11-20T02:40:04;99243.16;;;12.58;100.00
7333;BME280;3707;43.618;25.342;2022-11-20T02:42:32;99255.22;;;12.63;100.00
7333;BME280;3707;43.618;25.342;2022-11-20T02:44:59;99246.63;;;12.52;100.00
7333;BME280;3707;43.618;25.342;2022-11-20T02:47:26;99235.31;;;12.61;100.00
7333;BME280;3707;43.618;25.342;2022-11-20T02:49:53;99256.09;;;12.64;100.00
7333;BME280;3707;43.618;25.342;2022-11-20T02:52:19;99252.69;;;12.59;100.00
7333;BME280;3707;43.618;25.342;2022-11-20T02:54:46;99253.50;;;12.65;100.00
7333;BME280;3707;43.618;25.342;2022-11-20T02:57:13;99205.09;;;12.43;100.00
7333;BME280;3707;43.618;25.342;2022-11-20T02:59:41;99232.66;;;12.73;100.00
7333;BME280;3707;43.618;25.342;2022-11-20T03:02:08;99249.13;;;12.70;100.00
7333;BME280;3707;43.618;25.342;2022-11-20T03:04:35;99236.94;;;12.74;100.00
7333;BME280;3707;43.618;25.342;2022-11-20T03:07:02;99253.38;;;12.83;100.00
7333;BME280;3707;43.618;25.342;2022-11-20T03:09:29;99249.97;;;12.72;100.00
7333;BME280;3707;43.618;25.342;2022-11-20T03:11:56;99249.16;;;12.64;100.00
7333;BME280;3707;43.618;25.342;2022-11-20T03:14:22;99243.88;;;12.75;100.00
7333;BME280;3707;43.618;25.342;2022-11-20T03:16:50;99249.97;;;12.75;100.00
7333;BME280;3707;43.618;25.342;2022-11-20T03:19:17;99274.19;;;12.83;100.00
7333;BME280;3707;43.618;25.342;2022-11-20T03:21:44;99274.13;;;12.89;100.00
7333;BME280;3707;43.618;25.342;2022-11-20T03:24:11;99284.53;;;12.89;100.00
7333;BME280;3707;43.618;25.342;2022-11-20T03:26:38;99281.16;;;12.80;100.00
7333;BME280;3707;43.618;25.342;2022-11-20T03:29:06;99281.16;;;12.80;100.00
7333;BME280;3707;43.618;25.342;2022-11-20T03:31:34;99279.41;;;12.79;100.00
7333;BME280;3707;43.618;25.342;2022-11-20T03:34:03;99285.47;;;12.79;100.00
7333;BME280;3707;43.618;25.342;2022-11-20T03:36:30;99283.75;;;12.80;100.00
7333;BME280;3707;43.618;25.342;2022-11-20T03:38:58;99289.88;;;12.68;100.00
7333;BME280;3707;43.618;25.342;2022-11-20T03:41:26;99302.97;;;12.49;100.00
7333;BME280;3707;43.618;25.342;2022-11-20T03:43:55;99277.09;;;12.27;100.00
7333;BME280;3707;43.618;25.342;2022-11-20T03:46:22;99272.00;;;12.06;100.00
7333;BME280;3707;43.618;25.342;2022-11-20T03:48:50;99294.50;;;12.10;100.00
7333;BME280;3707;43.618;25.342;2022-11-20T03:51:20;99299.69;;;12.15;100.00
7333;BME280;3707;43.618;25.342;2022-11-20T03:53:48;99297.16;;;11.97;100.00
7333;BME280;3707;43.618;25.342;2022-11-20T03:56:16;99308.44;;;11.85;100.00
7333;BME280;3707;43.618;25.342;2022-11-20T03:58:43;99307.59;;;11.81;100.00
7333;BME280;3707;43.618;25.342;2022-11-20T04:01:13;99281.69;;;11.48;100.00
7333;BME280;3707;43.618;25.342;2022-11-20T04:03:41;99289.44;;;11.53;100.00
7333;BME280;3707;43.618;25.342;2022-11-20T04:06:10;99292.06;;;11.40;100.00
7333;BME280;3707;43.618;25.342;2022-11-20T04:08:40;99241.06;;;11.12;100.00
7333;BME280;3707;43.618;25.342;2022-11-20T04:11:12;99273.91;;;11.30;100.00
7333;BME280;3707;43.618;25.342;2022-11-20T04:13:39;99280.81;;;11.38;100.00
7333;BME280;3707;43.618;25.342;2022-11-20T04:16:07;99318.03;;;11.48;100.00
7333;BME280;3707;43.618;25.342;2022-11-20T04:18:34;99321.47;;;11.50;100.00
7333;BME280;3707;43.618;25.342;2022-11-20T04:21:02;99324.06;;;11.58;100.00
7333;BME280;3707;43.618;25.342;2022-11-20T04:23:29;99314.53;;;11.51;100.00
7333;BME280;3707;43.618;25.342;2022-11-20T04:26:02;99297.25;;;11.48;100.00
7333;BME280;3707;43.618;25.342;2022-11-20T04:28:29;99329.22;;;11.67;100.00
7333;BME280;3707;43.618;25.342;2022-11-20T04:31:02;99334.41;;;11.64;100.00
7333;BME280;3707;43.618;25.342;2022-11-20T04:33:29;99335.28;;;11.70;100.00
7333;BME280;3707;43.618;25.342;2022-11-20T04:36:00;99307.63;;;11.43;100.00
7333;BME280;3707;43.618;25.342;2022-11-20T04:38:27;99352.63;;;11.71;100.00
7333;BME280;3707;43.618;25.342;2022-11-20T04:40:56;99363.91;;;11.73;100.00
7333;BME280;3707;43.618;25.342;2022-11-20T04:43:25;99353.47;;;11.78;100.00
7333;BME280;3707;43.618;25.342;2022-11-20T04:45:52;99363.84;;;11.67;100.00
7333;BME280;3707;43.618;25.342;2022-11-20T04:48:19;99379.44;;;11.75;100.00
7333;BME280;3707;43.618;25.342;2022-11-20T04:50:45;99398.50;;;11.59;100.00
7333;BME280;3707;43.618;25.342;2022-11-20T04:53:12;99400.16;;;11.08;100.00
7333;BME280;3707;43.618;25.342;2022-11-20T04:55:39;99423.50;;;11.01;100.00
7333;BME280;3707;43.618;25.342;2022-11-20T04:58:06;99412.25;;;10.97;100.00
7333;BME280;3707;43.618;25.342;2022-11-20T05:00:34;99428.66;;;10.96;100.00
7333;BME280;3707;43.618;25.342;2022-11-20T05:03:01;99448.56;;;10.94;100.00
7333;BME280;3707;43.618;25.342;2022-11-20T05:05:28;99458.78;;;10.64;100.00
7333;BME280;3707;43.618;25.342;2022-11-20T05:07:56;99451.03;;;10.71;100.00
7333;BME280;3707;43.618;25.342;2022-11-20T05:10:22;99471.81;;;10.73;100.00
7333;BME280;3707;43.618;25.342;2022-11-20T05:12:49;99468.38;;;10.77;100.00
7333;BME280;3707;43.618;25.342;2022-11-20T05:15:16;99466.56;;;10.61;100.00
7333;BME280;3707;43.618;25.342;2022-11-20T05:17:48;99406.75;;;10.27;100.00
7333;BME280;3707;43.618;25.342;2022-11-20T05:20:15;99462.06;;;10.26;100.00
7333;BME280;3707;43.618;25.342;2022-11-20T05:22:42;99484.56;;;10.36;100.00
7333;BME280;3707;43.618;25.342;2022-11-20T05:25:09;99478.53;;;10.34;100.00
7333;BME280;3707;43.618;25.342;2022-11-20T05:27:35;99485.44;;;10.40;100.00
7333;BME280;3707;43.618;25.342;2022-11-20T05:30:03;99464.75;;;10.46;100.00
7333;BME280;3707;43.618;25.342;2022-11-20T05:32:30;99493.25;;;10.49;100.00
7333;BME280;3707;43.618;25.342;2022-11-20T05:34:58;99497.53;;;10.36;100.00
7333;BME280;3707;43.618;25.342;2022-11-20T05:37:25;99501.84;;;10.37;100.00
7333;BME280;3707;43.618;25.342;2022-11-20T05:39:51;99503.41;;;10.14;100.00
7333;BME280;3707;43.618;25.342;2022-11-20T05:42:18;99501.72;;;10.21;100.00
7333;BME280;3707;43.618;25.342;2022-11-20T05:44:57;99525.88;;;10.15;100.00
7333;BME280;3707;43.618;25.342;2022-11-20T05:47:24;99536.28;;;10.24;100.00
7333;BME280;3707;43.618;25.342;2022-11-20T05:49:50;99530.94;;;10.06;100.00
7333;BME280;3707;43.618;25.342;2022-11-20T05:52:19;99539.56;;;10.05;100.00
7333;BME280;3707;43.618;25.342;2022-11-20T05:54:46;99541.25;;;10.00;100.00
7333;BME280;3707;43.618;25.342;2022-11-20T05:57:13;99534.25;;;9.90;100.00
7333;BME280;3707;43.618;25.342;2022-11-20T05:59:39;99548.16;;;9.98;100.00
7333;BME280;3707;43.618;25.342;2022-11-20T06:02:06;99544.75;;;10.05;100.00
7333;BME280;3707;43.618;25.342;2022-11-20T06:04:33;99543.88;;;10.02;100.00
7333;BME280;3707;43.618;25.342;2022-11-20T06:07:00;99558.63;;;10.13;100.00
7333;BME280;3707;43.618;25.342;2022-11-20T06:09:28;99566.47;;;10.16;100.00
7333;BME280;3707;43.618;25.342;2022-11-20T06:11:55;99576.03;;;10.23;100.00
7333;BME280;3707;43.618;25.342;2022-11-20T06:14:22;99556.09;;;10.15;100.00
7333;BME280;3707;43.618;25.342;2022-11-20T06:16:48;99595.00;;;10.19;100.00
7333;BME280;3707;43.618;25.342;2022-11-20T06:19:15;99600.06;;;10.13;100.00
7333;BME280;3707;43.618;25.342;2022-11-20T06:21:42;99611.28;;;10.11;100.00
7333;BME280;3707;43.618;25.342;2022-11-20T06:24:10;99629.34;;;10.06;100.00
7333;BME280;3707;43.618;25.342;2022-11-20T06:26:38;99621.66;;;10.14;100.00
7333;BME280;3707;43.618;25.342;2022-11-20T06:29:05;99627.75;;;10.14;100.00
7333;BME280;3707;43.618;25.342;2022-11-20T06:31:31;99629.31;;;10.03;100.00
7333;BME280;3707;43.618;25.342;2022-11-20T06:34:00;99604.47;;;10.20;100.00
7333;BME280;3707;43.618;25.342;2022-11-20T06:36:27;99622.44;;;10.07;100.00
7333;BME280;3707;43.618;25.342;2022-11-20T06:38:53;99651.84;;;10.10;100.00
7333;BME280;3707;43.618;25.342;2022-11-20T06:41:22;99632.00;;;10.11;100.00
7333;BME280;3707;43.618;25.342;2022-11-20T06:43:50;99633.03;;;10.23;100.00
7333;BME280;3707;43.618;25.342;2022-11-20T06:46:18;99628.41;;;9.96;100.00
7333;BME280;3707;43.618;25.342;2022-11-20T06:48:46;99653.50;;;10.04;100.00
7333;BME280;3707;43.618;25.342;2022-11-20T06:51:13;99660.50;;;10.12;100.00
7333;BME280;3707;43.618;25.342;2022-11-20T06:53:40;99658.72;;;10.05;100.00
7333;BME280;3707;43.618;25.342;2022-11-20T06:56:07;99656.97;;;10.04;100.00
7333;BME280;3707;43.618;25.342;2022-11-20T06:58:34;99661.34;;;10.08;100.00
7333;BME280;3707;43.618;25.342;2022-11-20T07:01:04;99671.69;;;10.10;100.00
7333;BME280;3707;43.618;25.342;2022-11-20T07:03:31;99668.16;;;10.03;100.00
7333;BME280;3707;43.618;25.342;2022-11-20T07:06:00;99675.81;;;9.88;100.00
7333;BME280;3707;43.618;25.342;2022-11-20T07:08:27;99663.66;;;9.84;100.00
7333;BME280;3707;43.618;25.342;2022-11-20T07:10:57;99664.75;;;10.07;100.00
7333;BME280;3707;43.618;25.342;2022-11-20T07:13:25;99656.00;;;9.94;100.00
7333;BME280;3707;43.618;25.342;2022-11-20T07:15:52;99661.03;;;9.79;100.00
7333;BME280;3707;43.618;25.342;2022-11-20T07:18:20;99665.34;;;9.80;100.00
7333;BME280;3707;43.618;25.342;2022-11-20T07:20:47;99653.13;;;9.69;100.00
7333;BME280;3707;43.618;25.342;2022-11-20T07:23:14;99654.03;;;9.74;100.00
7333;BME280;3707;43.618;25.342;2022-11-20T07:25:41;99645.38;;;9.69;100.00
7333;BME280;3707;43.618;25.342;2022-11-20T07:28:07;99565.75;;;9.46;100.00
7333;BME280;3707;43.618;25.342;2022-11-20T07:30:36;99649.03;;;9.87;100.00
7333;BME280;3707;43.618;25.342;2022-11-20T07:33:03;99672.56;;;10.09;100.00
7333;BME280;3707;43.618;25.342;2022-11-20T07:35:31;99663.09;;;10.12;100.00
7333;BME280;3707;43.618;25.342;2022-11-20T07:37:58;99656.13;;;10.07;100.00
7333;BME280;3707;43.618;25.342;2022-11-20T07:40:24;99665.84;;;10.27;100.00
7333;BME280;3707;43.618;25.342;2022-11-20T07:42:52;99665.03;;;10.30;100.00
7333;BME280;3707;43.618;25.342;2022-11-20T07:45:20;99664.94;;;10.21;100.00
7333;BME280;3707;43.618;25.342;2022-11-20T07:47:48;99675.28;;;10.18;100.00
7333;BME280;3707;43.618;25.342;2022-11-20T07:50:15;99677.84;;;10.16;100.00
7333;BME280;3707;43.618;25.342;2022-11-20T07:52:44;99646.88;;;10.31;100.00
7333;BME280;3707;43.618;25.342;2022-11-20T07:55:11;99663.31;;;10.32;100.00
7333;BME280;3707;43.618;25.342;2022-11-20T07:57:38;99669.53;;;10.51;100.00
7333;BME280;3707;43.618;25.342;2022-11-20T08:00:06;99662.00;;;10.82;100.00
7333;BME280;3707;43.618;25.342;2022-11-20T08:02:34;99659.16;;;10.48;100.00
7333;BME280;3707;43.618;25.342;2022-11-20T08:05:03;99687.75;;;10.58;100.00
7333;BME280;3707;43.618;25.342;2022-11-20T08:07:35;99672.16;;;10.54;100.00
7333;BME280;3707;43.618;25.342;2022-11-20T08:10:04;99675.94;;;10.97;100.00
7333;BME280;3707;43.618;25.342;2022-11-20T08:12:31;99706.25;;;11.07;100.00
7333;BME280;3707;43.618;25.342;2022-11-20T08:15:15;99663.00;;;11.01;100.00
7333;BME280;3707;43.618;25.342;2022-11-20T08:17:42;99684.06;;;11.54;100.00
7333;BME280;3707;43.618;25.342;2022-11-20T08:20:09;99688.41;;;11.55;100.00
7333;BME280;3707;43.618;25.342;2022-11-20T08:22:36;99682.38;;;11.65;100.00
7333;BME280;3707;43.618;25.342;2022-11-20T08:25:05;99722.28;;;11.81;100.00
7333;BME280;3707;43.618;25.342;2022-11-20T08:27:32;99705.84;;;11.88;100.00
7333;BME280;3707;43.618;25.342;2022-11-20T08:29:59;99717.13;;;11.90;100.00
7333;BME280;3707;43.618;25.342;2022-11-20T08:32:26;99719.72;;;11.91;100.00
7333;BME280;3707;43.618;25.342;2022-11-20T08:34:52;99721.44;;;11.83;100.00
7333;BME280;3707;43.618;25.342;2022-11-20T08:37:19;99746.59;;;11.90;100.00
7333;BME280;3707;43.618;25.342;2022-11-20T08:39:46;99748.34;;;11.99;100.00
7333;BME280;3707;43.618;25.342;2022-11-20T08:42:14;99749.31;;;12.22;100.00
7333;BME280;3707;43.618;25.342;2022-11-20T08:44:41;99746.69;;;12.19;100.00
7333;BME280;3707;43.618;25.342;2022-11-20T08:47:08;99743.16;;;12.02;100.00
7333;BME280;3707;43.618;25.342;2022-11-20T08:49:35;99739.69;;;12.03;100.00
7333;BME280;3707;43.618;25.342;2022-11-20T08:52:02;99740.53;;;11.96;100.00
7333;BME280;3707;43.618;25.342;2022-11-20T08:54:28;99739.75;;;12.18;100.00
7333;BME280;3707;43.618;25.342;2022-11-20T08:56:55;99742.38;;;12.35;100.00
7333;BME280;3707;43.618;25.342;2022-11-20T08:59:23;99734.66;;;12.70;100.00
7333;BME280;3707;43.618;25.342;2022-11-20T09:01:50;99738.13;;;12.84;100.00
7333;BME280;3707;43.618;25.342;2022-11-20T09:04:17;99747.69;;;12.83;100.00
7333;BME280;3707;43.618;25.342;2022-11-20T09:06:44;99752.00;;;13.06;100.00
7333;BME280;3707;43.618;25.342;2022-11-20T09:09:10;99642.75;;;12.37;100.00
7333;BME280;3707;43.618;25.342;2022-11-20T09:11:37;99738.13;;;12.99;100.00
7333;BME280;3707;43.618;25.342;2022-11-20T09:14:04;99709.50;;;12.96;100.00
7333;BME280;3707;43.618;25.342;2022-11-20T09:16:32;99716.44;;;13.18;100.00
7333;BME280;3707;43.618;25.342;2022-11-20T09:18:59;99736.38;;;13.40;100.00
7333;BME280;3707;43.618;25.342;2022-11-20T09:21:26;99725.09;;;13.40;100.00
7333;BME280;3707;43.618;25.342;2022-11-20T09:23:53;99721.59;;;13.38;100.00
7333;BME280;3707;43.618;25.342;2022-11-20T09:26:19;99732.06;;;13.41;100.00
7333;BME280;3707;43.618;25.342;2022-11-20T09:28:46;99721.63;;;13.41;100.00
7333;BME280;3707;43.618;25.342;2022-11-20T09:31:19;99692.97;;;13.44;100.00
7333;BME280;3707;43.618;25.342;2022-11-20T09:33:49;99698.25;;;13.15;100.00
7333;BME280;3707;43.618;25.342;2022-11-20T09:36:16;99677.38;;;13.03;100.00
7333;BME280;3707;43.618;25.342;2022-11-20T09:38:44;99703.44;;;12.94;100.00
7333;BME280;3707;43.618;25.342;2022-11-20T09:41:26;99673.09;;;12.79;100.00
7333;BME280;3707;43.618;25.342;2022-11-20T09:44:01;99666.16;;;12.40;100.00
7333;BME280;3707;43.618;25.342;2022-11-20T09:46:40;99676.53;;;12.31;100.00
7333;BME280;3707;43.618;25.342;2022-11-20T09:49:22;99686.97;;;12.48;100.00
7333;BME280;3707;43.618;25.342;2022-11-20T09:51:56;99685.22;;;12.65;100.00
7333;BME280;3707;43.618;25.342;2022-11-20T09:54:27;99679.16;;;12.74;100.00
7333;BME280;3707;43.618;25.342;2022-11-20T09:56:59;99669.63;;;12.79;100.00
7333;BME280;3707;43.618;25.342;2022-11-20T09:59:33;99666.16;;;12.57;100.00
7333;BME280;3707;43.618;25.342;2022-11-20T10:02:08;99673.06;;;12.99;100.00
7333;BME280;3707;43.618;25.342;2022-11-20T10:04:44;99694.75;;;13.22;100.00
7333;BME280;3707;43.618;25.342;2022-11-20T10:07:17;99696.50;;;13.17;100.00
7333;BME280;3707;43.618;25.342;2022-11-20T10:09:51;99699.94;;;13.28;100.00
7333;BME280;3707;43.618;25.342;2022-11-20T10:12:25;99688.63;;;13.45;100.00
7333;BME280;3707;43.618;25.342;2022-11-20T10:15:05;99679.88;;;13.59;100.00
7333;BME280;3707;43.618;25.342;2022-11-20T10:18:11;99683.44;;;13.28;100.00
7333;BME280;3707;43.618;25.342;2022-11-20T10:20:46;99663.50;;;13.16;100.00
7333;BME280;3707;43.618;25.342;2022-11-20T10:23:41;99687.78;;;13.24;100.00
7333;BME280;3707;43.618;25.342;2022-11-20T10:26:17;99643.59;;;13.02;100.00
7333;BME280;3707;43.618;25.342;2022-11-20T10:29:04;99671.34;;;12.97;100.00
7333;BME280;3707;43.618;25.342;2022-11-20T10:31:36;99646.19;;;12.85;100.00
7333;BME280;3707;43.618;25.342;2022-11-20T10:34:07;99687.81;;;12.94;100.00
7333;BME280;3707;43.618;25.342;2022-11-20T10:36:44;99688.69;;;12.79;100.00
7333;BME280;3707;43.618;25.342;2022-11-20T10:39:19;99684.38;;;12.77;100.00
7333;BME280;3707;43.618;25.342;2022-11-20T10:41:50;99674.84;;;12.52;100.00
7333;BME280;3707;43.618;25.342;2022-11-20T10:44:20;99680.88;;;12.35;100.00
7333;BME280;3707;43.618;25.342;2022-11-20T10:47:02;99595.91;;;11.77;100.00
7333;BME280;3707;43.618;25.342;2022-11-20T10:49:30;99660.91;;;12.18;100.00
7333;BME280;3707;43.618;25.342;2022-11-20T10:52:07;99660.94;;;12.27;100.00
7333;BME280;3707;43.618;25.342;2022-11-20T10:54:42;99639.25;;;12.14;100.00
7333;BME280;3707;43.618;25.342;2022-11-20T10:57:21;99661.78;;;12.18;100.00
7333;BME280;3707;43.618;25.342;2022-11-20T11:00:00;99674.75;;;12.11;100.00
7333;BME280;3707;43.618;25.342;2022-11-20T11:02:33;99639.22;;;12.01;100.00
7333;BME280;3707;43.618;25.342;2022-11-20T11:05:11;99643.59;;;12.23;100.00
7333;BME280;3707;43.618;25.342;2022-11-20T11:07:41;99645.31;;;12.74;100.00
7333;BME280;3707;43.618;25.342;2022-11-20T11:10:15;99621.03;;;13.05;100.00
7333;BME280;3707;43.618;25.342;2022-11-20T11:12:44;99629.72;;;12.87;100.00
7333;BME280;3707;43.618;25.342;2022-11-20T11:15:15;99615.81;;;12.98;100.00
7333;BME280;3707;43.618;25.342;2022-11-20T11:17:50;99618.44;;;12.98;100.00
7333;BME280;3707;43.618;25.342;2022-11-20T11:20:19;99608.88;;;13.00;100.00
7333;BME280;3707;43.618;25.342;2022-11-20T11:22:49;99625.38;;;12.82;100.00
7333;BME280;3707;43.618;25.342;2022-11-20T11:25:25;99620.22;;;12.36;100.00
7333;BME280;3707;43.618;25.342;2022-11-20T11:27:54;99667.00;;;12.39;100.00
7333;BME280;3707;43.618;25.342;2022-11-20T11:30:23;99649.63;;;12.01;100.00
7333;BME280;3707;43.618;25.342;2022-11-20T11:32:50;99675.56;;;11.88;100.00
7333;BME280;3707;43.618;25.342;2022-11-20T11:35:23;99661.59;;;11.67;100.00
7333;BME280;3707;43.618;25.342;2022-11-20T11:37:52;99683.22;;;11.55;100.00
7333;BME280;3707;43.618;25.342;2022-11-20T11:40:21;99618.88;;;11.00;100.00
7333;BME280;3707;43.618;25.342;2022-11-20T11:42:54;99683.84;;;11.15;100.00
7333;BME280;3707;43.618;25.342;2022-11-20T11:45:23;99666.53;;;11.09;100.00
7333;BME280;3707;43.618;25.342;2022-11-20T11:47:50;99645.75;;;11.08;100.00
7333;BME280;3707;43.618;25.342;2022-11-20T11:50:21;99636.31;;;11.25;100.00
7333;BME280;3707;43.618;25.342;2022-11-20T11:52:56;99637.22;;;11.33;100.00
7333;BME280;3707;43.618;25.342;2022-11-20T11:55:29;99641.59;;;11.37;100.00
7333;BME280;3707;43.618;25.342;2022-11-20T11:58:06;99626.88;;;11.40;100.00
7333;BME280;3707;43.618;25.342;2022-11-20T12:00:35;99608.69;;;11.30;100.00
7333;BME280;3707;43.618;25.342;2022-11-20T12:03:10;99622.50;;;11.26;100.00
7333;BME280;3707;43.618;25.342;2022-11-20T12:05:41;99597.41;;;11.26;100.00
7333;BME280;3707;43.618;25.342;2022-11-20T12:08:16;99573.19;;;11.20;100.00
7333;BME280;3707;43.618;25.342;2022-11-20T12:10:48;99570.59;;;11.32;100.00
7333;BME280;3707;43.618;25.342;2022-11-20T12:13:34;99579.28;;;11.34;100.00
7333;BME280;3707;43.618;25.342;2022-11-20T12:16:04;99568.81;;;11.20;100.00
7333;BME280;3707;43.618;25.342;2022-11-20T12:18:31;99561.84;;;11.07;100.00
7333;BME280;3707;43.618;25.342;2022-11-20T12:21:05;99548.09;;;11.31;100.00
7333;BME280;3707;43.618;25.342;2022-11-20T12:23:44;99539.50;;;11.41;100.00
7333;BME280;3707;43.618;25.342;2022-11-20T12:26:19;99533.41;;;11.28;100.00
7333;BME280;3707;43.618;25.342;2022-11-20T12:28:58;99545.50;;;11.26;100.00
7333;BME280;3707;43.618;25.342;2022-11-20T12:31:45;99538.53;;;11.15;100.00
7333;BME280;3707;43.618;25.342;2022-11-20T12:37:13;99521.09;;;10.79;100.00
7333;BME280;3707;43.618;25.342;2022-11-20T12:39:48;99506.41;;;10.82;100.00
7333;BME280;3707;43.618;25.342;2022-11-20T12:42:31;99524.63;;;10.93;100.00
7333;BME280;3707;43.618;25.342;2022-11-20T12:48:21;99482.13;;;10.65;100.00
7333;BME280;3707;43.618;25.342;2022-11-20T12:51:01;99467.41;;;10.60;100.00
7333;BME280;3707;43.618;25.342;2022-11-20T12:53:39;99469.13;;;10.55;100.00
7333;BME280;3707;43.618;25.342;2022-11-20T12:56:21;99475.22;;;10.64;100.00
7333;BME280;3707;43.618;25.342;2022-11-20T12:59:00;99470.03;;;10.63;100.00
7333;BME280;3707;43.618;25.342;2022-11-20T13:01:32;99446.63;;;10.44;100.00
7333;BME280;3707;43.618;25.342;2022-11-20T13:04:18;99456.19;;;10.62;100.00
7333;BME280;3707;43.618;25.342;2022-11-20T13:06:50;99460.44;;;10.50;100.00
7333;BME280;3707;43.618;25.342;2022-11-20T13:09:19;99451.84;;;10.52;100.00
7333;BME280;3707;43.618;25.342;2022-11-20T13:11:52;99422.38;;;10.39;100.00
7333;BME280;3707;43.618;25.342;2022-11-20T13:14:32;99448.44;;;10.71;100.00
7333;BME280;3707;43.618;25.342;2022-11-20T13:17:06;99430.31;;;10.70;100.00
7333;BME280;3707;43.618;25.342;2022-11-20T13:19:36;99425.91;;;10.57;100.00